sensor_id;sensor_type;location;lat;lon;timestamp;pressure;altitude;pressure_sealevel;temperature;humidity
21779;BME280;11050;52.222;20.916;2022-12-29T00:01:37;99923.88;;;7.50;84.63
21779;BME280;11050;52.222;20.916;2022-12-29T00:04:04;99942.50;;;7.53;84.05
21779;BME280;11050;52.222;20.916;2022-12-29T00:06:30;99933.25;;;7.54;84.59
21779;BME280;11050;52.222;20.916;2022-12-29T00:08:56;99929.94;;;7.52;84.39
21779;BME280;11050;52.222;20.916;2022-12-29T00:11:25;99934.56;;;7.51;83.63
21779;BME280;11050;52.222;20.916;2022-12-29T00:13:53;99930.88;;;7.57;84.19
21779;BME280;11050;52.222;20.916;2022-12-29T00:16:42;99928.13;;;7.57;84.04
21779;BME280;11050;52.222;20.916;2022-12-29T00:19:08;99923.25;;;7.59;83.89
21779;BME280;11050;52.222;20.916;2022-12-29T00:21:54;99917.19;;;7.57;83.61
21779;BME280;11050;52.222;20.916;2022-12-29T00:24:38;99924.06;;;7.60;83.98
21779;BME280;11050;52.222;20.916;2022-12-29T00:27:22;99919.09;;;7.57;84.25
21779;BME280;11050;52.222;20.916;2022-12-29T00:30:13;99926.38;;;7.51;83.95
21779;BME280;11050;52.222;20.916;2022-12-29T00:32:57;99919.94;;;7.57;83.70
21779;BME280;11050;52.222;20.916;2022-12-29T00:35:57;99920.97;;;7.56;83.63
21779;BME280;11050;52.222;20.916;2022-12-29T00:38:25;99931.31;;;7.54;83.36
21779;BME280;11050;52.222;20.916;2022-12-29T00:41:10;99924.06;;;7.60;83.30
21779;BME280;11050;52.222;20.916;2022-12-29T00:43:54;99934.53;;;7.63;82.93
21779;BME280;11050;52.222;20.916;2022-12-29T00:46:34;99926.69;;;7.55;83.54
21779;BME280;11050;52.222;20.916;2022-12-29T00:49:01;99922.41;;;7.59;83.80
21779;BME280;11050;52.222;20.916;2022-12-29T00:51:47;99926.06;;;7.64;83.54
21779;BME280;11050;52.222;20.916;2022-12-29T00:54:13;99925.22;;;7.64;83.34
21779;BME280;11050;52.222;20.916;2022-12-29T00:56:39;99919.50;;;7.65;82.90
21779;BME280;11050;52.222;20.916;2022-12-29T00:59:09;99915.13;;;7.64;83.34
21779;BME280;11050;52.222;20.916;2022-12-29T01:01:37;99914.28;;;7.64;82.67
21779;BME280;11050;52.222;20.916;2022-12-29T01:04:04;99911.91;;;7.67;82.97
21779;BME280;11050;52.222;20.916;2022-12-29T01:06:31;99900.75;;;7.69;82.84
21779;BME280;11050;52.222;20.916;2022-12-29T01:08:57;99903.22;;;7.71;82.54
21779;BME280;11050;52.222;20.916;2022-12-29T01:11:41;99889.63;;;7.76;81.86
21779;BME280;11050;52.222;20.916;2022-12-29T01:14:06;99897.59;;;7.77;82.18
21779;BME280;11050;52.222;20.916;2022-12-29T01:16:33;99899.00;;;7.80;81.75
21779;BME280;11050;52.222;20.916;2022-12-29T01:18:59;99888.06;;;7.80;81.92
21779;BME280;11050;52.222;20.916;2022-12-29T01:21:25;99890.72;;;7.75;82.51
21779;BME280;11050;52.222;20.916;2022-12-29T01:23:51;99886.16;;;7.80;82.15
21779;BME280;11050;52.222;20.916;2022-12-29T01:26:18;99879.84;;;7.80;82.67
21779;BME280;11050;52.222;20.916;2022-12-29T01:28:44;99894.63;;;7.79;82.89
21779;BME280;11050;52.222;20.916;2022-12-29T01:31:11;99876.88;;;7.81;82.70
21779;BME280;11050;52.222;20.916;2022-12-29T01:33:38;99880.84;;;7.74;81.86
21779;BME280;11050;52.222;20.916;2022-12-29T01:36:07;99871.47;;;7.69;82.82
21779;BME280;11050;52.222;20.916;2022-12-29T01:38:35;99869.31;;;7.72;82.78
21779;BME280;11050;52.222;20.916;2022-12-29T01:41:03;99862.19;;;7.71;82.77
21779;BME280;11050;52.222;20.916;2022-12-29T01:43:49;99857.78;;;7.69;82.45
21779;BME280;11050;52.222;20.916;2022-12-29T01:49:24;99862.94;;;7.66;82.74
21779;BME280;11050;52.222;20.916;2022-12-29T01:51:57;99853.53;;;7.62;82.56
21779;BME280;11050;52.222;20.916;2022-12-29T01:57:00;99847.50;;;7.60;82.97
21779;BME280;11050;52.222;20.916;2022-12-29T01:59:37;99844.44;;;7.56;83.40
21779;BME280;11050;52.222;20.916;2022-12-29T02:02:06;99858.09;;;7.56;84.17
21779;BME280;11050;52.222;20.916;2022-12-29T02:04:33;99842.44;;;7.52;84.58
21779;BME280;11050;52.222;20.916;2022-12-29T02:07:05;99838.19;;;7.44;85.45
21779;BME280;11050;52.222;20.916;2022-12-29T02:09:32;99828.91;;;7.45;85.80
21779;BME280;11050;52.222;20.916;2022-12-29T02:11:59;99842.50;;;7.40;86.92
21779;BME280;11050;52.222;20.916;2022-12-29T02:14:25;99850.44;;;7.42;87.54
21779;BME280;11050;52.222;20.916;2022-12-29T02:37:35;99849.03;;;7.00;96.38
21779;BME280;11050;52.222;20.916;2022-12-29T02:40:37;99844.31;;;6.95;97.65
21779;BME280;11050;52.222;20.916;2022-12-29T02:43:23;99851.59;;;6.90;98.87
21779;BME280;11050;52.222;20.916;2022-12-29T02:46:10;99854.19;;;6.85;99.64
21779;BME280;11050;52.222;20.916;2022-12-29T02:49:22;99846.38;;;6.77;100.00
21779;BME280;11050;52.222;20.916;2022-12-29T02:51:57;99852.56;;;6.72;100.00
21779;BME280;11050;52.222;20.916;2022-12-29T02:54:23;99861.69;;;6.66;100.00
21779;BME280;11050;52.222;20.916;2022-12-29T02:57:27;99854.34;;;6.55;100.00
21779;BME280;11050;52.222;20.916;2022-12-29T03:00:14;99858.38;;;6.52;100.00
21779;BME280;11050;52.222;20.916;2022-12-29T03:12:07;99844.19;;;6.27;100.00
21779;BME280;11050;52.222;20.916;2022-12-29T03:15:02;99843.81;;;6.24;100.00
21779;BME280;11050;52.222;20.916;2022-12-29T03:18:02;99840.94;;;6.19;100.00
21779;BME280;11050;52.222;20.916;2022-12-29T03:21:08;99838.47;;;6.17;100.00
21779;BME280;11050;52.222;20.916;2022-12-29T03:23:40;99827.78;;;6.16;100.00
21779;BME280;11050;52.222;20.916;2022-12-29T03:26:11;99818.44;;;6.12;100.00
21779;BME280;11050;52.222;20.916;2022-12-29T03:28:50;99820.09;;;6.13;100.00
21779;BME280;11050;52.222;20.916;2022-12-29T03:31:20;99798.72;;;6.10;100.00
21779;BME280;11050;52.222;20.916;2022-12-29T03:33:48;99797.91;;;6.09;100.00
21779;BME280;11050;52.222;20.916;2022-12-29T03:36:30;99778.44;;;6.06;100.00
21779;BME280;11050;52.222;20.916;2022-12-29T03:39:09;99770.50;;;6.04;100.00
21779;BME280;11050;52.222;20.916;2022-12-29T03:41:43;99753.22;;;5.99;100.00
21779;BME280;11050;52.222;20.916;2022-12-29T03:44:12;99731.50;;;6.04;100.00
21779;BME280;11050;52.222;20.916;2022-12-29T03:46:38;99801.59;;;6.03;100.00
21779;BME280;11050;52.222;20.916;2022-12-29T03:49:04;99792.69;;;5.96;100.00
21779;BME280;11050;52.222;20.916;2022-12-29T03:51:29;99792.22;;;5.88;100.00
21779;BME280;11050;52.222;20.916;2022-12-29T03:53:55;99777.38;;;5.84;100.00
21779;BME280;11050;52.222;20.916;2022-12-29T03:56:21;99763.38;;;5.80;100.00
21779;BME280;11050;52.222;20.916;2022-12-29T03:58:46;99774.72;;;5.77;100.00
21779;BME280;11050;52.222;20.916;2022-12-29T04:01:12;99772.72;;;5.72;100.00
21779;BME280;11050;52.222;20.916;2022-12-29T04:03:38;99776.50;;;5.71;100.00
21779;BME280;11050;52.222;20.916;2022-12-29T04:06:04;99765.47;;;5.66;100.00
21779;BME280;11050;52.222;20.916;2022-12-29T04:08:30;99769.06;;;5.67;100.00
21779;BME280;11050;52.222;20.916;2022-12-29T04:10:55;99758.97;;;5.67;100.00
21779;BME280;11050;52.222;20.916;2022-12-29T04:13:21;99754.81;;;5.65;100.00
21779;BME280;11050;52.222;20.916;2022-12-29T04:15:47;99760.16;;;5.71;100.00
21779;BME280;11050;52.222;20.916;2022-12-29T04:18:13;99754.09;;;5.69;100.00
21779;BME280;11050;52.222;20.916;2022-12-29T04:20:39;99772.03;;;5.65;100.00
21779;BME280;11050;52.222;20.916;2022-12-29T04:23:23;99766.78;;;5.64;100.00
21779;BME280;11050;52.222;20.916;2022-12-29T04:25:49;99773.66;;;5.66;100.00
21779;BME280;11050;52.222;20.916;2022-12-29T04:28:16;99765.97;;;5.63;100.00
21779;BME280;11050;52.222;20.916;2022-12-29T04:30:43;99756.84;;;5.58;100.00
21779;BME280;11050;52.222;20.916;2022-12-29T04:33:09;99755.41;;;5.55;100.00
21779;BME280;11050;52.222;20.916;2022-12-29T04:35:35;99739.06;;;5.55;100.00
21779;BME280;11050;52.222;20.916;2022-12-29T04:38:02;99739.66;;;5.57;100.00
21779;BME280;11050;52.222;20.916;2022-12-29T04:40:28;99746.63;;;5.53;100.00
21779;BME280;11050;52.222;20.916;2022-12-29T04:42:54;99744.47;;;5.44;100.00
21779;BME280;11050;52.222;20.916;2022-12-29T04:45:20;99752.78;;;5.49;100.00
21779;BME280;11050;52.222;20.916;2022-12-29T04:47:46;99735.03;;;5.46;100.00
21779;BME280;11050;52.222;20.916;2022-12-29T04:50:12;99750.03;;;5.49;100.00
21779;BME280;11050;52.222;20.916;2022-12-29T04:52:38;99749.84;;;5.50;100.00
21779;BME280;11050;52.222;20.916;2022-12-29T04:55:05;99746.97;;;5.57;100.00
21779;BME280;11050;52.222;20.916;2022-12-29T04:57:31;99722.94;;;5.54;100.00
21779;BME280;11050;52.222;20.916;2022-12-29T04:59:56;99734.88;;;5.53;100.00
21779;BME280;11050;52.222;20.916;2022-12-29T05:02:22;99728.41;;;5.54;100.00
21779;BME280;11050;52.222;20.916;2022-12-29T05:04:48;99730.63;;;5.57;100.00
21779;BME280;11050;52.222;20.916;2022-12-29T05:07:14;99718.91;;;5.56;100.00
21779;BME280;11050;52.222;20.916;2022-12-29T05:09:40;99722.09;;;5.53;100.00
21779;BME280;11050;52.222;20.916;2022-12-29T05:12:06;99732.53;;;5.56;100.00
21779;BME280;11050;52.222;20.916;2022-12-29T05:14:31;99727.06;;;5.56;100.00
21779;BME280;11050;52.222;20.916;2022-12-29T05:16:57;99717.84;;;5.57;100.00
21779;BME280;11050;52.222;20.916;2022-12-29T05:19:23;99735.38;;;5.61;100.00
21779;BME280;11050;52.222;20.916;2022-12-29T05:21:48;99723.16;;;5.64;100.00
21779;BME280;11050;52.222;20.916;2022-12-29T05:24:14;99733.38;;;5.68;100.00
21779;BME280;11050;52.222;20.916;2022-12-29T05:26:41;99706.94;;;5.69;100.00
21779;BME280;11050;52.222;20.916;2022-12-29T05:29:07;99713.34;;;5.74;100.00
21779;BME280;11050;52.222;20.916;2022-12-29T05:31:33;99712.28;;;5.75;100.00
21779;BME280;11050;52.222;20.916;2022-12-29T05:34:01;99699.59;;;5.69;100.00
21779;BME280;11050;52.222;20.916;2022-12-29T05:36:27;99689.28;;;5.71;100.00
21779;BME280;11050;52.222;20.916;2022-12-29T05:38:53;99694.13;;;5.69;100.00
21779;BME280;11050;52.222;20.916;2022-12-29T05:41:18;99702.91;;;5.71;100.00
21779;BME280;11050;52.222;20.916;2022-12-29T05:43:44;99700.56;;;5.63;100.00
21779;BME280;11050;52.222;20.916;2022-12-29T05:46:10;99698.63;;;5.64;100.00
21779;BME280;11050;52.222;20.916;2022-12-29T05:48:36;99690.34;;;5.59;100.00
21779;BME280;11050;52.222;20.916;2022-12-29T05:51:02;99691.06;;;5.66;100.00
21779;BME280;11050;52.222;20.916;2022-12-29T05:53:27;99687.97;;;5.62;100.00
21779;BME280;11050;52.222;20.916;2022-12-29T05:55:53;99687.28;;;5.67;100.00
21779;BME280;11050;52.222;20.916;2022-12-29T05:58:19;99689.28;;;5.71;100.00
21779;BME280;11050;52.222;20.916;2022-12-29T06:00:45;99700.56;;;5.75;99.21
21779;BME280;11050;52.222;20.916;2022-12-29T06:03:10;99693.78;;;5.77;99.21
21779;BME280;11050;52.222;20.916;2022-12-29T06:05:37;99685.00;;;5.75;97.79
21779;BME280;11050;52.222;20.916;2022-12-29T06:08:03;99692.03;;;5.83;97.42
21779;BME280;11050;52.222;20.916;2022-12-29T06:10:28;99686.47;;;5.90;96.71
21779;BME280;11050;52.222;20.916;2022-12-29T06:12:54;99702.22;;;5.88;96.54
21779;BME280;11050;52.222;20.916;2022-12-29T06:15:20;99701.50;;;5.92;96.77
21779;BME280;11050;52.222;20.916;2022-12-29T06:17:46;99700.22;;;5.95;96.14
21779;BME280;11050;52.222;20.916;2022-12-29T06:20:12;99692.03;;;5.95;96.62
21779;BME280;11050;52.222;20.916;2022-12-29T06:22:38;99693.47;;;5.97;95.37
21779;BME280;11050;52.222;20.916;2022-12-29T06:25:04;99683.50;;;6.03;95.89
21779;BME280;11050;52.222;20.916;2022-12-29T06:27:31;99675.66;;;6.06;94.94
21779;BME280;11050;52.222;20.916;2022-12-29T06:29:56;99694.72;;;6.18;94.73
21779;BME280;11050;52.222;20.916;2022-12-29T06:32:22;99691.41;;;6.16;93.73
21779;BME280;11050;52.222;20.916;2022-12-29T06:34:48;99695.69;;;6.12;94.58
21779;BME280;11050;52.222;20.916;2022-12-29T06:37:13;99693.28;;;6.15;94.54
21779;BME280;11050;52.222;20.916;2022-12-29T06:39:40;99703.75;;;6.18;94.16
21779;BME280;11050;52.222;20.916;2022-12-29T06:42:06;99704.56;;;6.19;93.96
21779;BME280;11050;52.222;20.916;2022-12-29T06:44:31;99703.84;;;6.23;94.36
21779;BME280;11050;52.222;20.916;2022-12-29T06:46:57;99714.50;;;6.25;94.30
21779;BME280;11050;52.222;20.916;2022-12-29T06:49:23;99702.88;;;6.29;94.43
21779;BME280;11050;52.222;20.916;2022-12-29T06:51:49;99706.22;;;6.31;94.40
21779;BME280;11050;52.222;20.916;2022-12-29T06:54:15;99703.47;;;6.31;93.31
21779;BME280;11050;52.222;20.916;2022-12-29T06:56:40;99701.09;;;6.35;93.65
21779;BME280;11050;52.222;20.916;2022-12-29T06:59:06;99699.53;;;6.39;93.92
21779;BME280;11050;52.222;20.916;2022-12-29T07:01:32;99704.75;;;6.40;93.66
21779;BME280;11050;52.222;20.916;2022-12-29T07:03:58;99684.09;;;6.44;92.26
21779;BME280;11050;52.222;20.916;2022-12-29T07:06:24;99692.03;;;6.46;93.46
21779;BME280;11050;52.222;20.916;2022-12-29T07:08:49;99683.47;;;6.54;91.88
21779;BME280;11050;52.222;20.916;2022-12-29T07:11:15;99693.06;;;6.56;90.86
21779;BME280;11050;52.222;20.916;2022-12-29T07:13:41;99684.28;;;6.54;91.50
21779;BME280;11050;52.222;20.916;2022-12-29T07:16:10;99688.31;;;6.63;90.48
21779;BME280;11050;52.222;20.916;2022-12-29T07:18:36;99690.78;;;6.65;90.39
21779;BME280;11050;52.222;20.916;2022-12-29T07:21:03;99689.44;;;6.67;90.41
21779;BME280;11050;52.222;20.916;2022-12-29T07:23:29;99691.13;;;6.68;90.39
21779;BME280;11050;52.222;20.916;2022-12-29T07:26:03;99686.09;;;6.77;89.39
21779;BME280;11050;52.222;20.916;2022-12-29T07:28:29;99687.00;;;6.83;88.85
21779;BME280;11050;52.222;20.916;2022-12-29T07:30:55;99681.41;;;6.89;87.54
21779;BME280;11050;52.222;20.916;2022-12-29T07:33:20;99684.97;;;6.90;86.21
21779;BME280;11050;52.222;20.916;2022-12-29T07:35:46;99683.41;;;6.94;86.60
21779;BME280;11050;52.222;20.916;2022-12-29T07:38:12;99688.03;;;6.93;86.22
21779;BME280;11050;52.222;20.916;2022-12-29T07:40:38;99688.13;;;6.98;85.17
21779;BME280;11050;52.222;20.916;2022-12-29T07:43:04;99688.72;;;7.00;84.58
21779;BME280;11050;52.222;20.916;2022-12-29T07:45:30;99691.53;;;7.05;84.51
21779;BME280;11050;52.222;20.916;2022-12-29T07:47:55;99683.44;;;7.10;84.27
21779;BME280;11050;52.222;20.916;2022-12-29T07:50:21;99681.19;;;7.07;84.43
21779;BME280;11050;52.222;20.916;2022-12-29T07:52:47;99680.38;;;7.07;84.66
21779;BME280;11050;52.222;20.916;2022-12-29T07:55:15;99671.34;;;7.06;84.93
21779;BME280;11050;52.222;20.916;2022-12-29T07:57:41;99674.47;;;7.15;84.43
21779;BME280;11050;52.222;20.916;2022-12-29T08:00:07;99674.34;;;7.21;83.93
21779;BME280;11050;52.222;20.916;2022-12-29T08:02:35;99664.13;;;7.17;83.11
21779;BME280;11050;52.222;20.916;2022-12-29T08:05:01;99661.50;;;7.22;83.27
21779;BME280;11050;52.222;20.916;2022-12-29T08:07:27;99668.13;;;7.42;82.37
21779;BME280;11050;52.222;20.916;2022-12-29T08:09:53;99667.03;;;7.43;82.40
21779;BME280;11050;52.222;20.916;2022-12-29T08:12:18;99662.22;;;7.50;82.34
21779;BME280;11050;52.222;20.916;2022-12-29T08:14:44;99655.13;;;7.49;82.09
21779;BME280;11050;52.222;20.916;2022-12-29T08:17:10;99662.41;;;7.60;82.57
21779;BME280;11050;52.222;20.916;2022-12-29T08:19:36;99665.47;;;7.64;80.71
21779;BME280;11050;52.222;20.916;2022-12-29T08:22:02;99661.56;;;7.77;80.90
21779;BME280;11050;52.222;20.916;2022-12-29T08:24:28;99662.78;;;7.86;79.58
21779;BME280;11050;52.222;20.916;2022-12-29T08:26:54;99671.00;;;7.86;79.66
21779;BME280;11050;52.222;20.916;2022-12-29T08:29:19;99670.00;;;7.92;78.20
21779;BME280;11050;52.222;20.916;2022-12-29T08:31:47;99674.53;;;8.03;78.07
21779;BME280;11050;52.222;20.916;2022-12-29T08:34:13;99672.41;;;8.10;76.29
21779;BME280;11050;52.222;20.916;2022-12-29T08:36:39;99657.91;;;8.09;77.34
21779;BME280;11050;52.222;20.916;2022-12-29T08:39:05;99685.06;;;8.32;76.53
21779;BME280;11050;52.222;20.916;2022-12-29T08:41:30;99687.94;;;8.42;75.55
21779;BME280;11050;52.222;20.916;2022-12-29T08:43:56;99693.34;;;8.37;74.17
21779;BME280;11050;52.222;20.916;2022-12-29T08:46:22;99693.28;;;8.32;74.37
21779;BME280;11050;52.222;20.916;2022-12-29T08:48:48;99695.50;;;8.35;74.40
21779;BME280;11050;52.222;20.916;2022-12-29T08:51:14;99693.91;;;8.39;74.30
21779;BME280;11050;52.222;20.916;2022-12-29T08:53:39;99692.91;;;8.45;73.82
21779;BME280;11050;52.222;20.916;2022-12-29T08:56:06;99686.59;;;8.45;73.20
21779;BME280;11050;52.222;20.916;2022-12-29T08:58:32;99677.34;;;8.51;73.65
21779;BME280;11050;52.222;20.916;2022-12-29T09:00:58;99679.69;;;8.64;73.38
21779;BME280;11050;52.222;20.916;2022-12-29T09:03:25;99681.16;;;8.72;72.78
21779;BME280;11050;52.222;20.916;2022-12-29T09:05:52;99675.50;;;8.78;72.69
21779;BME280;11050;52.222;20.916;2022-12-29T09:08:19;99674.97;;;8.81;71.65
21779;BME280;11050;52.222;20.916;2022-12-29T09:10:45;99677.75;;;8.86;71.66
21779;BME280;11050;52.222;20.916;2022-12-29T09:13:13;99675.97;;;8.97;71.05
21779;BME280;11050;52.222;20.916;2022-12-29T09:15:39;99665.59;;;9.04;70.61
21779;BME280;11050;52.222;20.916;2022-12-29T09:18:07;99670.09;;;9.15;70.57
21779;BME280;11050;52.222;20.916;2022-12-29T09:20:33;99667.72;;;9.23;69.71
21779;BME280;11050;52.222;20.916;2022-12-29T09:22:59;99668.84;;;9.27;69.66
21779;BME280;11050;52.222;20.916;2022-12-29T09:25:26;99676.34;;;9.37;69.38
21779;BME280;11050;52.222;20.916;2022-12-29T09:27:52;99673.38;;;9.43;69.27
21779;BME280;11050;52.222;20.916;2022-12-29T09:30:21;99664.00;;;9.39;69.71
21779;BME280;11050;52.222;20.916;2022-12-29T09:32:47;99664.84;;;9.40;68.53
21779;BME280;11050;52.222;20.916;2022-12-29T09:35:15;99665.84;;;9.29;69.18
21779;BME280;11050;52.222;20.916;2022-12-29T09:37:42;99678.72;;;9.28;69.75
21779;BME280;11050;52.222;20.916;2022-12-29T09:40:26;99673.81;;;9.30;68.71
21779;BME280;11050;52.222;20.916;2022-12-29T09:43:25;99665.53;;;9.25;69.34
21779;BME280;11050;52.222;20.916;2022-12-29T09:48:50;99649.69;;;9.32;69.36
21779;BME280;11050;52.222;20.916;2022-12-29T09:51:23;99645.91;;;9.38;69.26
21779;BME280;11050;52.222;20.916;2022-12-29T09:53:58;99653.03;;;9.39;69.04
21779;BME280;11050;52.222;20.916;2022-12-29T09:56:27;99655.50;;;9.41;69.23
21779;BME280;11050;52.222;20.916;2022-12-29T09:59:09;99660.09;;;9.30;68.90
21779;BME280;11050;52.222;20.916;2022-12-29T10:01:51;99644.22;;;9.32;69.19
21779;BME280;11050;52.222;20.916;2022-12-29T10:04:18;99644.97;;;9.28;68.81
21779;BME280;11050;52.222;20.916;2022-12-29T10:07:26;99637.56;;;9.23;69.32
21779;BME280;11050;52.222;20.916;2022-12-29T10:10:20;99639.19;;;9.24;69.45
21779;BME280;11050;52.222;20.916;2022-12-29T10:13:20;99626.59;;;9.23;69.93
21779;BME280;11050;52.222;20.916;2022-12-29T10:16:02;99631.03;;;9.29;69.47
21779;BME280;11050;52.222;20.916;2022-12-29T10:18:55;99614.03;;;9.27;69.33
21779;BME280;11050;52.222;20.916;2022-12-29T10:21:59;99621.97;;;9.29;69.79
21779;BME280;11050;52.222;20.916;2022-12-29T10:24:31;99612.16;;;9.33;69.05
21779;BME280;11050;52.222;20.916;2022-12-29T10:26:59;99617.88;;;9.31;69.51
21779;BME280;11050;52.222;20.916;2022-12-29T10:29:36;99620.59;;;9.31;68.95
21779;BME280;11050;52.222;20.916;2022-12-29T10:32:28;99622.28;;;9.32;68.69
21779;BME280;11050;52.222;20.916;2022-12-29T10:35:21;99611.56;;;9.31;69.04
21779;BME280;11050;52.222;20.916;2022-12-29T10:38:23;99611.31;;;9.32;68.73
21779;BME280;11050;52.222;20.916;2022-12-29T10:43:27;99611.72;;;9.51;69.08
21779;BME280;11050;52.222;20.916;2022-12-29T10:46:00;99605.75;;;9.59;68.16
21779;BME280;11050;52.222;20.916;2022-12-29T10:48:32;99599.25;;;9.75;67.48
21779;BME280;11050;52.222;20.916;2022-12-29T10:51:04;99602.56;;;9.77;67.54
21779;BME280;11050;52.222;20.916;2022-12-29T10:53:43;99591.63;;;9.82;67.39
21779;BME280;11050;52.222;20.916;2022-12-29T10:56:32;99602.91;;;9.91;67.11
21779;BME280;11050;52.222;20.916;2022-12-29T10:59:06;99609.22;;;9.91;66.96
21779;BME280;11050;52.222;20.916;2022-12-29T11:02:21;99599.06;;;9.92;66.68
21779;BME280;11050;52.222;20.916;2022-12-29T11:08:08;99594.97;;;9.99;65.94
21779;BME280;11050;52.222;20.916;2022-12-29T11:10:41;99606.28;;;10.08;66.02
21779;BME280;11050;52.222;20.916;2022-12-29T11:13:25;99598.94;;;10.13;65.42
21779;BME280;11050;52.222;20.916;2022-12-29T11:15:51;99594.78;;;10.11;65.20
21779;BME280;11050;52.222;20.916;2022-12-29T11:18:27;99593.09;;;10.05;65.88
21779;BME280;11050;52.222;20.916;2022-12-29T11:21:00;99582.38;;;10.03;65.85
21779;BME280;11050;52.222;20.916;2022-12-29T11:23:34;99585.41;;;10.07;66.21
21779;BME280;11050;52.222;20.916;2022-12-29T11:26:23;99583.78;;;10.06;66.44
21779;BME280;11050;52.222;20.916;2022-12-29T11:31:45;99600.03;;;10.17;66.23
21779;BME280;11050;52.222;20.916;2022-12-29T11:36:58;99607.72;;;10.10;66.23
21779;BME280;11050;52.222;20.916;2022-12-29T11:39:57;99595.91;;;10.15;66.85
21779;BME280;11050;52.222;20.916;2022-12-29T11:43:00;99598.66;;;10.15;66.40
21779;BME280;11050;52.222;20.916;2022-12-29T11:45:35;99597.31;;;10.17;66.59
21779;BME280;11050;52.222;20.916;2022-12-29T11:48:17;99589.31;;;10.11;66.63
21779;BME280;11050;52.222;20.916;2022-12-29T11:50:52;99586.56;;;10.11;66.76
21779;BME280;11050;52.222;20.916;2022-12-29T11:53:29;99594.56;;;10.17;67.13
21779;BME280;11050;52.222;20.916;2022-12-29T11:56:06;99594.28;;;10.14;67.23
21779;BME280;11050;52.222;20.916;2022-12-29T11:58:37;99595.69;;;10.21;66.74
21779;BME280;11050;52.222;20.916;2022-12-29T12:01:36;99588.78;;;10.19;66.90
21779;BME280;11050;52.222;20.916;2022-12-29T12:04:16;99578.38;;;10.26;66.80
21779;BME280;11050;52.222;20.916;2022-12-29T12:07:11;99580.31;;;10.30;66.69
21779;BME280;11050;52.222;20.916;2022-12-29T12:09:53;99582.78;;;10.32;67.06
21779;BME280;11050;52.222;20.916;2022-12-29T12:12:38;99583.09;;;10.35;66.74
21779;BME280;11050;52.222;20.916;2022-12-29T12:15:17;99578.13;;;10.37;67.04
21779;BME280;11050;52.222;20.916;2022-12-29T12:18:05;99572.94;;;10.41;66.71
21779;BME280;11050;52.222;20.916;2022-12-29T12:20:54;99582.28;;;10.45;67.19
21779;BME280;11050;52.222;20.916;2022-12-29T12:26:44;99575.72;;;10.56;66.37
21779;BME280;11050;52.222;20.916;2022-12-29T12:29:55;99570.78;;;10.58;66.50
21779;BME280;11050;52.222;20.916;2022-12-29T12:59:41;99547.72;;;10.84;65.31
21779;BME280;11050;52.222;20.916;2022-12-29T13:08:38;99555.16;;;10.84;65.33
21779;BME280;11050;52.222;20.916;2022-12-29T13:14:18;99554.06;;;10.75;66.31
21779;BME280;11050;52.222;20.916;2022-12-29T13:17:17;99559.28;;;10.81;66.35
21779;BME280;11050;52.222;20.916;2022-12-29T13:22:33;99553.22;;;10.84;67.22
21779;BME280;11050;52.222;20.916;2022-12-29T13:28:16;99555.97;;;10.79;67.55
21779;BME280;11050;52.222;20.916;2022-12-29T13:31:15;99562.84;;;10.82;67.72
21779;BME280;11050;52.222;20.916;2022-12-29T13:41:49;99559.03;;;10.88;67.91
21779;BME280;11050;52.222;20.916;2022-12-29T13:44:23;99563.41;;;10.89;67.76
21779;BME280;11050;52.222;20.916;2022-12-29T13:46:50;99564.22;;;10.94;67.41
21779;BME280;11050;52.222;20.916;2022-12-29T13:49:20;99563.69;;;10.97;66.86
21779;BME280;11050;52.222;20.916;2022-12-29T13:52:09;99557.09;;;10.98;66.96
21779;BME280;11050;52.222;20.916;2022-12-29T13:54:53;99564.22;;;10.84;66.88
21779;BME280;11050;52.222;20.916;2022-12-29T13:57:56;99567.53;;;10.86;67.34
21779;BME280;11050;52.222;20.916;2022-12-29T14:00:33;99582.63;;;10.79;67.33
21779;BME280;11050;52.222;20.916;2022-12-29T14:03:34;99586.75;;;10.81;67.10
21779;BME280;11050;52.222;20.916;2022-12-29T14:06:30;99581.53;;;10.80;67.26
21779;BME280;11050;52.222;20.916;2022-12-29T14:09:00;99579.63;;;10.80;67.30
21779;BME280;11050;52.222;20.916;2022-12-29T14:11:34;99580.19;;;10.82;66.76
21779;BME280;11050;52.222;20.916;2022-12-29T14:14:28;99582.38;;;10.85;66.72
21779;BME280;11050;52.222;20.916;2022-12-29T14:17:09;99575.50;;;10.83;66.37
21779;BME280;11050;52.222;20.916;2022-12-29T14:19:42;99575.50;;;10.78;66.78
21779;BME280;11050;52.222;20.916;2022-12-29T14:22:10;99573.03;;;10.81;66.76
21779;BME280;11050;52.222;20.916;2022-12-29T14:24:45;99564.50;;;10.83;66.66
21779;BME280;11050;52.222;20.916;2022-12-29T14:35:37;99562.31;;;10.75;67.08
21779;BME280;11050;52.222;20.916;2022-12-29T14:38:16;99553.22;;;10.69;67.69
21779;BME280;11050;52.222;20.916;2022-12-29T14:40:42;99551.28;;;10.70;67.65
21779;BME280;11050;52.222;20.916;2022-12-29T14:43:25;99564.75;;;10.66;67.64
21779;BME280;11050;52.222;20.916;2022-12-29T14:46:01;99569.16;;;10.67;67.70
21779;BME280;11050;52.222;20.916;2022-12-29T14:48:34;99568.06;;;10.68;67.68
21779;BME280;11050;52.222;20.916;2022-12-29T14:51:02;99559.53;;;10.65;68.42
21779;BME280;11050;52.222;20.916;2022-12-29T14:53:51;99571.91;;;10.72;67.94
21779;BME280;11050;52.222;20.916;2022-12-29T14:56:24;99576.03;;;10.70;68.39
21779;BME280;11050;52.222;20.916;2022-12-29T14:58:59;99581.50;;;10.70;68.92
21779;BME280;11050;52.222;20.916;2022-12-29T15:01:48;99563.69;;;10.82;68.76
21779;BME280;11050;52.222;20.916;2022-12-29T15:04:31;99574.09;;;10.75;68.88
21779;BME280;11050;52.222;20.916;2022-12-29T15:07:00;99564.50;;;10.73;68.91
21779;BME280;11050;52.222;20.916;2022-12-29T15:09:37;99579.56;;;10.60;69.68
21779;BME280;11050;52.222;20.916;2022-12-29T15:12:18;99571.34;;;10.55;70.19
21779;BME280;11050;52.222;20.916;2022-12-29T15:14:55;99571.56;;;10.38;70.52
21779;BME280;11050;52.222;20.916;2022-12-29T15:17:31;99586.09;;;10.34;71.31